createdAt,value
2023-01-25T00:00:53.109Z,102268.41
2023-01-25T00:03:21.046Z,102270.09
2023-01-25T00:05:48.913Z,102260.72
2023-01-25T00:08:16.807Z,102262.44
2023-01-25T00:10:45.899Z,102259.84
2023-01-25T00:13:13.798Z,102233.34
2023-01-25T00:15:41.598Z,102253.03
2023-01-25T00:18:09.378Z,102247.91
2023-01-25T00:20:37.449Z,102251.34
2023-01-25T00:23:05.229Z,102253.88
2023-01-25T00:25:32.990Z,102236.78
2023-01-25T00:28:02.296Z,102234.25
2023-01-25T00:30:30.074Z,102235.97
2023-01-25T00:33:07.520Z,102232.56
2023-01-25T00:35:35.906Z,102243.69
2023-01-25T00:38:08.672Z,102231.69
2023-01-25T00:40:36.436Z,102222.28
2023-01-25T00:43:05.661Z,102216.28
2023-01-25T00:45:33.518Z,102205.22
2023-01-25T00:48:01.273Z,102213.78
2023-01-25T00:50:29.829Z,102203.50
2023-01-25T00:52:57.782Z,102197.50
2023-01-25T00:55:25.584Z,102190.69
2023-01-25T00:57:53.513Z,102176.16
2023-01-25T01:00:23.007Z,102197.50
2023-01-25T01:02:51.747Z,102195.81
2023-01-25T01:05:19.685Z,102169.28
2023-01-25T01:07:50.582Z,102179.59
2023-01-25T01:10:18.557Z,102171.88
2023-01-25T01:12:46.282Z,102181.28
2023-01-25T01:15:14.369Z,102167.59
2023-01-25T01:17:43.540Z,102171.03
2023-01-25T01:20:12.476Z,102170.16
2023-01-25T01:22:40.473Z,102157.34
2023-01-25T01:25:10.895Z,102166.75
2023-01-25T01:27:38.463Z,102158.19
2023-01-25T01:30:20.809Z,102156.50
2023-01-25T01:32:50.021Z,102150.50
2023-01-25T01:35:18.221Z,102132.56
2023-01-25T01:37:45.978Z,102132.56
2023-01-25T01:40:17.003Z,102134.25
2023-01-25T01:42:59.210Z,102134.25
2023-01-25T01:45:58.536Z,102138.53
2023-01-25T01:48:35.542Z,102136.81
2023-01-25T01:51:09.657Z,102143.66
2023-01-25T01:53:38.418Z,102128.25
2023-01-25T01:56:11.732Z,102126.50
2023-01-25T01:58:41.141Z,102123.09
2023-01-25T02:01:08.955Z,102129.97
2023-01-25T02:03:38.809Z,102131.66
2023-01-25T02:06:13.837Z,102110.28
2023-01-25T02:08:43.403Z,102113.69
2023-01-25T02:11:13.656Z,102123.13
2023-01-25T02:13:41.657Z,102116.28
2023-01-25T02:16:16.469Z,102118.81
2023-01-25T02:18:46.031Z,102119.69
2023-01-25T02:21:14.438Z,102105.16
2023-01-25T02:23:49.765Z,102103.44
2023-01-25T02:26:20.201Z,102111.94
2023-01-25T02:28:51.938Z,102084.59
2023-01-25T02:31:19.960Z,102100.00
2023-01-25T02:33:47.865Z,102099.97
2023-01-25T02:36:23.026Z,102088.03
2023-01-25T02:38:55.211Z,102091.44
2023-01-25T02:41:29.173Z,102088.88
2023-01-25T02:43:56.894Z,102067.50
2023-01-25T02:46:28.439Z,102081.16
2023-01-25T02:48:57.571Z,102059.78
2023-01-25T02:51:27.640Z,102070.91
2023-01-25T02:53:55.448Z,102041.84
2023-01-25T02:56:23.755Z,102058.88
2023-01-25T02:58:52.893Z,102060.59
2023-01-25T03:01:21.287Z,102058.03
2023-01-25T03:03:49.640Z,102067.47
2023-01-25T03:06:17.581Z,102041.81
2023-01-25T03:08:45.320Z,102036.66
2023-01-25T03:11:13.393Z,102035.81
2023-01-25T03:13:41.241Z,102042.63
2023-01-25T03:16:12.732Z,102018.66
2023-01-25T03:18:41.597Z,102028.94
2023-01-25T03:21:12.201Z,102009.31
2023-01-25T03:23:40.569Z,102002.41
2023-01-25T03:26:11.122Z,102013.50
2023-01-25T03:28:40.180Z,102022.06
2023-01-25T03:31:11.723Z,102014.31
2023-01-25T03:33:48.628Z,102001.56
2023-01-25T03:36:17.095Z,101979.38
2023-01-25T03:38:44.905Z,101975.94
2023-01-25T03:41:14.061Z,101975.06
2023-01-25T03:43:41.931Z,101988.72
2023-01-25T03:46:11.071Z,101964.78
2023-01-25T03:48:38.948Z,101957.09
2023-01-25T03:51:07.183Z,101987.88
2023-01-25T03:53:34.965Z,101977.56
2023-01-25T03:56:05.313Z,101969.03
2023-01-25T03:58:33.177Z,101964.75
2023-01-25T04:01:02.409Z,101957.00
2023-01-25T04:03:31.908Z,101952.72
2023-01-25T04:06:00.699Z,101939.09
2023-01-25T04:08:28.628Z,101963.84
2023-01-25T04:10:58.361Z,101905.84
2023-01-25T04:13:26.501Z,101952.75
2023-01-25T04:15:54.739Z,101946.75
2023-01-25T04:18:22.918Z,101944.16
2023-01-25T04:20:56.084Z,101928.81
2023-01-25T04:23:24.666Z,101938.22
2023-01-25T04:25:55.916Z,101927.13
2023-01-25T04:28:24.403Z,101918.63
2023-01-25T04:30:52.229Z,101933.09
2023-01-25T04:33:20.199Z,101939.91
2023-01-25T04:35:48.571Z,101916.84
2023-01-25T04:38:18.299Z,101921.94
2023-01-25T04:40:46.753Z,101916.88
2023-01-25T04:43:15.312Z,101927.97
2023-01-25T04:45:43.174Z,101921.06
2023-01-25T04:48:12.662Z,101927.94
2023-01-25T04:50:42.127Z,101916.81
2023-01-25T04:53:11.173Z,101932.19
2023-01-25T04:55:40.533Z,101923.63
2023-01-25T04:58:08.512Z,101925.34
2023-01-25T05:00:36.329Z,101915.91
2023-01-25T05:03:04.446Z,101892.06
2023-01-25T05:05:32.528Z,101892.94
2023-01-25T05:08:00.317Z,101917.59
2023-01-25T05:10:28.121Z,101916.75
2023-01-25T05:12:57.575Z,101904.78
2023-01-25T05:15:25.301Z,101906.50
2023-01-25T05:17:53.166Z,101903.06
2023-01-25T05:20:21.070Z,101883.50
2023-01-25T05:22:48.892Z,101904.72
2023-01-25T05:25:31.397Z,101903.88
2023-01-25T05:28:00.494Z,101899.63
2023-01-25T05:30:28.313Z,101897.13
2023-01-25T05:32:56.407Z,101895.41
2023-01-25T05:35:24.189Z,101865.53
2023-01-25T05:37:51.930Z,101868.09
2023-01-25T05:40:20.057Z,101859.56
2023-01-25T05:42:54.693Z,101886.84
2023-01-25T05:45:24.154Z,101893.66
2023-01-25T05:47:55.094Z,101858.72
2023-01-25T05:50:23.743Z,101890.28
2023-01-25T05:52:51.716Z,101880.03
2023-01-25T05:55:19.810Z,101892.81
2023-01-25T05:57:47.715Z,101890.28
2023-01-25T06:00:15.952Z,101880.81
2023-01-25T06:02:45.505Z,101874.81
2023-01-25T06:05:13.445Z,101854.34
2023-01-25T06:07:41.195Z,101833.84
2023-01-25T06:10:10.436Z,101835.59
2023-01-25T06:12:39.720Z,101857.66
2023-01-25T06:15:08.682Z,101854.28
2023-01-25T06:17:36.637Z,101835.53
2023-01-25T06:20:07.127Z,101848.38
2023-01-25T06:22:34.753Z,101839.72
2023-01-25T06:25:02.712Z,101814.16
2023-01-25T06:27:30.551Z,101839.69
2023-01-25T06:29:58.351Z,101829.47
2023-01-25T06:32:27.448Z,101825.19
2023-01-25T06:34:55.303Z,101837.16
2023-01-25T06:37:24.545Z,101830.28
2023-01-25T06:39:52.385Z,101816.69
2023-01-25T06:42:20.595Z,101819.22
2023-01-25T06:44:48.401Z,101827.66
2023-01-25T06:47:17.136Z,101829.41
2023-01-25T06:49:44.974Z,101826.84
2023-01-25T06:52:12.786Z,101823.47
2023-01-25T06:54:42.298Z,101833.66
2023-01-25T06:57:10.426Z,101820.81
2023-01-25T06:59:38.187Z,101799.53
2023-01-25T07:02:06.333Z,101808.00
2023-01-25T07:04:34.273Z,101789.22
2023-01-25T07:07:02.011Z,101802.81
2023-01-25T07:09:29.818Z,101791.78
2023-01-25T07:11:59.141Z,101809.63
2023-01-25T07:14:26.873Z,101789.13
2023-01-25T07:16:54.913Z,101819.00
2023-01-25T07:19:22.991Z,101811.22
2023-01-25T07:21:50.912Z,101799.25
2023-01-25T07:24:20.722Z,101810.41
2023-01-25T07:26:49.338Z,101794.03
2023-01-25T07:29:18.591Z,101777.88
2023-01-25T07:31:46.592Z,101787.25
2023-01-25T07:34:31.481Z,101780.34
2023-01-25T07:36:59.754Z,101767.56
2023-01-25T07:39:27.610Z,101784.59
2023-01-25T07:41:55.375Z,101747.16
2023-01-25T07:44:46.786Z,101776.84
2023-01-25T07:47:14.633Z,101790.56
2023-01-25T07:49:42.439Z,101761.59
2023-01-25T07:52:10.461Z,101783.69
2023-01-25T07:54:38.197Z,101762.41
2023-01-25T07:57:05.914Z,101776.00
2023-01-25T07:59:33.896Z,101773.44
2023-01-25T08:02:03.011Z,101766.53
2023-01-25T08:04:30.884Z,101759.72
2023-01-25T08:06:58.939Z,101750.28
2023-01-25T08:09:26.683Z,101763.09
2023-01-25T08:11:54.589Z,101760.47
2023-01-25T08:14:22.670Z,101762.28
2023-01-25T08:16:50.401Z,101757.09
2023-01-25T08:19:20.223Z,101747.63
2023-01-25T08:21:48.165Z,101746.78
2023-01-25T08:24:17.259Z,101743.25
2023-01-25T08:26:45.221Z,101744.13
2023-01-25T08:29:13.898Z,101735.50
2023-01-25T08:31:43.981Z,101717.69
2023-01-25T08:34:12.191Z,101729.53
2023-01-25T08:36:41.689Z,101731.16
2023-01-25T08:39:11.756Z,101731.19
2023-01-25T08:41:39.875Z,101730.38
2023-01-25T08:44:07.735Z,101715.91
2023-01-25T08:46:35.828Z,101731.16
2023-01-25T08:49:04.822Z,101731.16
2023-01-25T08:51:33.933Z,101721.72
2023-01-25T08:54:07.071Z,101727.69
2023-01-25T08:56:37.461Z,101715.66
2023-01-25T08:59:06.018Z,101709.88
2023-01-25T09:01:33.826Z,101720.88
2023-01-25T09:04:01.860Z,101718.28
2023-01-25T09:06:30.111Z,101712.28
2023-01-25T09:09:00.024Z,101729.34
2023-01-25T09:11:29.419Z,101724.19
2023-01-25T09:13:57.438Z,101731.81
2023-01-25T09:16:30.265Z,101722.41
2023-01-25T09:19:00.248Z,101719.03
2023-01-25T09:21:28.974Z,101736.16
2023-01-25T09:24:06.584Z,101723.28
2023-01-25T09:26:38.538Z,101732.72
2023-01-25T09:29:08.225Z,101731.91
2023-01-25T09:31:40.746Z,101733.63
2023-01-25T09:34:10.213Z,101721.63
2023-01-25T09:36:38.662Z,101725.03
2023-01-25T09:39:06.497Z,101722.41
2023-01-25T09:42:13.975Z,101713.84
2023-01-25T09:44:57.081Z,101702.78
2023-01-25T09:47:30.400Z,101708.72
2023-01-25T09:50:18.759Z,101697.59
2023-01-25T09:53:16.342Z,101695.81
2023-01-25T09:55:45.303Z,101680.34
2023-01-25T09:58:20.582Z,101676.91
2023-01-25T10:00:51.917Z,101661.47
2023-01-25T10:03:24.234Z,101646.00
2023-01-25T10:05:54.635Z,101662.22
2023-01-25T10:08:28.069Z,101652.75
2023-01-25T10:11:03.369Z,101649.31
2023-01-25T10:13:32.991Z,101667.34
2023-01-25T10:16:09.909Z,101656.22
2023-01-25T10:18:55.800Z,101637.47
2023-01-25T10:21:29.255Z,101627.94
2023-01-25T10:24:27.263Z,101641.63
2023-01-25T10:26:58.310Z,101643.16
2023-01-25T10:29:32.270Z,101622.59
2023-01-25T10:32:12.210Z,101629.31
2023-01-25T10:34:55.760Z,101620.63
2023-01-25T10:37:28.256Z,101594.41
2023-01-25T10:40:04.386Z,101611.41
2023-01-25T10:42:38.355Z,101615.59
2023-01-25T10:45:12.867Z,101602.78
2023-01-25T10:47:43.875Z,101602.91
2023-01-25T10:50:47.383Z,101603.72
2023-01-25T10:53:31.609Z,101590.28
2023-01-25T10:56:19.420Z,101578.22
2023-01-25T10:58:49.777Z,101561.25
2023-01-25T11:01:28.786Z,101587.53
2023-01-25T11:03:57.184Z,101569.59
2023-01-25T11:06:35.641Z,101547.53
2023-01-25T11:09:23.896Z,101566.94
2023-01-25T11:11:56.467Z,101561.81
2023-01-25T11:14:26.618Z,101572.97
2023-01-25T11:16:56.615Z,101555.06
2023-01-25T11:19:32.563Z,101556.81
2023-01-25T11:22:03.668Z,101553.41
2023-01-25T11:24:32.743Z,101542.25
2023-01-25T11:27:23.938Z,101549.91
2023-01-25T11:30:11.197Z,101535.38
2023-01-25T11:32:41.435Z,101543.03
2023-01-25T11:35:14.951Z,101535.47
2023-01-25T11:38:06.852Z,101544.00
2023-01-25T11:40:40.987Z,101544.91
2023-01-25T11:43:22.667Z,101526.25
2023-01-25T11:46:06.497Z,101544.88
2023-01-25T11:48:52.680Z,101521.91
2023-01-25T11:51:26.412Z,101528.84
2023-01-25T11:54:10.704Z,101528.84
2023-01-25T11:56:52.324Z,101522.97
2023-01-25T11:59:31.695Z,101520.28
2023-01-25T12:02:16.831Z,101525.44
2023-01-25T12:05:21.924Z,101518.66
2023-01-25T12:07:56.979Z,101509.44
2023-01-25T12:10:32.863Z,101506.91
2023-01-25T12:13:10.686Z,101507.00
2023-01-25T12:15:59.497Z,101519.03
2023-01-25T12:18:41.389Z,101522.44
2023-01-25T12:21:30.757Z,101509.69
2023-01-25T12:24:17.944Z,101493.63
2023-01-25T12:26:54.479Z,101510.50
2023-01-25T12:29:27.672Z,101485.00
2023-01-25T12:32:03.174Z,101502.03
2023-01-25T12:34:37.059Z,101508.63
2023-01-25T12:37:14.352Z,101515.06
2023-01-25T12:39:48.679Z,101504.88
2023-01-25T12:42:21.780Z,101535.44
2023-01-25T12:44:56.730Z,101522.56
2023-01-25T12:47:33.464Z,101520.88
2023-01-25T12:50:10.850Z,101525.28
2023-01-25T12:52:42.438Z,101531.09
2023-01-25T12:55:29.532Z,101503.16
2023-01-25T12:58:04.266Z,101515.81
2023-01-25T13:00:39.419Z,101509.69
2023-01-25T13:03:22.749Z,101512.25
2023-01-25T13:05:55.340Z,101506.25
2023-01-25T13:08:32.517Z,101496.06
2023-01-25T13:11:11.128Z,101495.22
2023-01-25T13:13:40.853Z,101493.41
2023-01-25T13:16:34.556Z,101495.22
2023-01-25T13:19:02.743Z,101470.66
2023-01-25T13:21:42.387Z,101472.16
2023-01-25T13:24:18.213Z,101521.63
2023-01-25T13:26:58.149Z,101485.84
2023-01-25T13:30:00.848Z,101490.91
2023-01-25T13:33:06.509Z,101490.94
2023-01-25T13:35:45.188Z,101490.84
2023-01-25T13:38:36.853Z,101479.81
2023-01-25T13:41:12.458Z,101457.72
2023-01-25T13:43:48.397Z,101482.50
2023-01-25T13:46:23.303Z,101491.81
2023-01-25T13:49:01.698Z,101481.56
2023-01-25T13:51:36.052Z,101471.31
2023-01-25T13:54:04.194Z,101484.88
2023-01-25T13:56:34.920Z,101481.47
2023-01-25T13:59:03.014Z,101479.72
2023-01-25T14:01:35.212Z,101479.03
2023-01-25T14:04:05.809Z,101471.91
2023-01-25T14:06:37.578Z,101473.63
2023-01-25T14:09:07.961Z,101455.75
2023-01-25T14:11:39.944Z,101443.72
2023-01-25T14:14:19.911Z,101454.06
2023-01-25T14:17:02.746Z,101438.72
2023-01-25T14:19:31.941Z,101442.03
2023-01-25T14:22:22.114Z,101431.00
2023-01-25T14:25:08.769Z,101437.00
2023-01-25T14:27:37.654Z,101429.31
2023-01-25T14:30:06.513Z,101417.47
2023-01-25T14:32:37.096Z,101416.47
2023-01-25T14:35:19.558Z,101427.50
2023-01-25T14:37:47.489Z,101443.84
2023-01-25T14:40:22.141Z,101439.56
2023-01-25T14:42:50.970Z,101418.34
2023-01-25T14:45:19.382Z,101453.28
2023-01-25T14:47:59.020Z,101460.88
2023-01-25T14:50:35.622Z,101444.75
2023-01-25T14:53:09.750Z,101447.22
2023-01-25T14:55:38.660Z,101448.03
2023-01-25T14:58:08.558Z,101443.81
2023-01-25T15:00:38.638Z,101439.63
2023-01-25T15:03:16.841Z,101441.44
2023-01-25T15:05:48.765Z,101456.72
2023-01-25T15:08:27.458Z,101447.44
2023-01-25T15:10:56.878Z,101456.84
2023-01-25T15:13:26.562Z,101449.84
2023-01-25T15:15:57.972Z,101438.75
2023-01-25T15:18:48.144Z,101443.22
2023-01-25T15:21:17.608Z,101456.00
2023-01-25T15:23:47.304Z,101422.78
2023-01-25T15:26:19.842Z,101429.34
2023-01-25T15:28:48.032Z,101444.13
2023-01-25T15:31:18.757Z,101441.44
2023-01-25T15:33:48.482Z,101429.59
2023-01-25T15:36:17.741Z,101417.69
2023-01-25T15:38:46.063Z,101434.72
2023-01-25T15:41:14.777Z,101432.13
2023-01-25T15:43:51.915Z,101428.91
2023-01-25T15:46:23.478Z,101430.41
2023-01-25T15:48:53.911Z,101432.13
2023-01-25T15:51:22.048Z,101432.13
2023-01-25T15:53:50.071Z,101420.34
2023-01-25T15:56:20.422Z,101424.47
2023-01-25T15:58:51.537Z,101416.84
2023-01-25T16:01:19.628Z,101424.47
2023-01-25T16:03:47.417Z,101421.03
2023-01-25T16:06:29.830Z,101413.28
2023-01-25T16:08:58.849Z,101410.78
2023-01-25T16:11:26.989Z,101422.78
2023-01-25T16:13:55.139Z,101390.41
2023-01-25T16:16:25.387Z,101409.03
2023-01-25T16:18:53.612Z,101403.06
2023-01-25T16:21:22.915Z,101401.28
2023-01-25T16:23:50.681Z,101385.84
2023-01-25T16:26:21.751Z,101372.38
2023-01-25T16:28:49.605Z,101386.75
2023-01-25T16:31:31.266Z,101393.50
2023-01-25T16:33:59.827Z,101328.91
2023-01-25T16:36:29.265Z,101334.72
2023-01-25T16:38:57.101Z,101377.41
2023-01-25T16:41:25.080Z,101373.97
2023-01-25T16:43:53.586Z,101370.66
2023-01-25T16:46:23.440Z,101357.00
2023-01-25T16:48:53.317Z,101369.66
2023-01-25T16:51:23.600Z,101367.91
2023-01-25T16:53:55.662Z,101378.25
2023-01-25T16:56:25.083Z,101365.41
2023-01-25T16:58:54.720Z,101378.91
2023-01-25T17:01:24.354Z,101379.84
2023-01-25T17:03:53.121Z,101362.19
2023-01-25T17:06:24.036Z,101363.72
2023-01-25T17:08:54.122Z,101369.53
2023-01-25T17:11:22.695Z,101381.44
2023-01-25T17:13:51.554Z,101383.34
2023-01-25T17:16:20.966Z,101374.84
2023-01-25T17:18:49.545Z,101387.59
2023-01-25T17:21:19.396Z,101397.13
2023-01-25T17:23:47.368Z,101372.38
2023-01-25T17:26:19.914Z,101385.13
2023-01-25T17:28:48.930Z,101379.97
2023-01-25T17:31:18.690Z,101379.03
2023-01-25T17:33:47.128Z,101361.28
2023-01-25T17:36:15.631Z,101375.75
2023-01-25T17:38:43.724Z,101373.97
2023-01-25T17:41:14.068Z,101379.19
2023-01-25T17:43:44.355Z,101388.53
2023-01-25T17:46:13.303Z,101386.75
2023-01-25T17:48:41.488Z,101376.56
2023-01-25T17:51:09.676Z,101385.13
2023-01-25T17:53:37.567Z,101388.41
2023-01-25T17:56:07.141Z,101384.28
2023-01-25T17:58:36.851Z,101381.72
2023-01-25T18:01:14.208Z,101358.69
2023-01-25T18:03:43.038Z,101373.91
2023-01-25T18:06:11.574Z,101351.81
2023-01-25T18:08:40.708Z,101351.75
2023-01-25T18:11:10.320Z,101351.66
2023-01-25T18:13:41.050Z,101347.38
2023-01-25T18:16:11.412Z,101356.00
2023-01-25T18:18:40.295Z,101355.38
2023-01-25T18:21:10.278Z,101357.16
2023-01-25T18:23:40.103Z,101335.81
2023-01-25T18:26:12.598Z,101328.81
2023-01-25T18:28:40.505Z,101331.34
2023-01-25T18:31:08.769Z,101327.91
2023-01-25T18:33:38.377Z,101333.09
2023-01-25T18:36:07.303Z,101327.13
2023-01-25T18:38:35.061Z,101333.81
2023-01-25T18:41:02.959Z,101331.31
2023-01-25T18:43:30.959Z,101325.41
2023-01-25T18:45:59.602Z,101324.44
2023-01-25T18:48:31.318Z,101319.50
2023-01-25T18:51:02.115Z,101324.59
2023-01-25T18:53:32.264Z,101325.53
2023-01-25T18:56:02.046Z,101339.06
2023-01-25T18:58:32.683Z,101341.56
2023-01-25T19:01:05.534Z,101351.81
2023-01-25T19:03:33.374Z,101348.28
2023-01-25T19:06:03.032Z,101358.59
2023-01-25T19:08:32.421Z,101350.13
2023-01-25T19:11:01.848Z,101367.44
2023-01-25T19:13:32.239Z,101353.84
2023-01-25T19:16:02.001Z,101366.63
2023-01-25T19:18:34.067Z,101370.72
2023-01-25T19:21:07.502Z,101374.03
2023-01-25T19:23:37.013Z,101360.56
2023-01-25T19:26:05.538Z,101360.69
2023-01-25T19:28:34.716Z,101363.31
2023-01-25T19:31:07.707Z,101355.66
2023-01-25T19:33:36.257Z,101360.66
2023-01-25T19:36:07.122Z,101379.31
2023-01-25T19:38:39.523Z,101374.28
2023-01-25T19:41:08.618Z,101377.69
2023-01-25T19:43:37.610Z,101381.09
2023-01-25T19:46:10.352Z,101369.91
2023-01-25T19:48:39.060Z,101359.91
2023-01-25T19:51:13.254Z,101385.41
2023-01-25T19:53:46.245Z,101371.69
2023-01-25T19:56:16.362Z,101354.91
2023-01-25T19:58:45.390Z,101369.22
2023-01-25T20:01:15.191Z,101352.28
2023-01-25T20:03:43.751Z,101365.16
2023-01-25T20:06:15.036Z,101353.94
2023-01-25T20:08:45.270Z,101360.78
2023-01-25T20:11:15.169Z,101359.09
2023-01-25T20:13:43.852Z,101327.06
2023-01-25T20:16:13.080Z,101351.59
2023-01-25T20:18:41.348Z,101342.06
2023-01-25T20:21:14.621Z,101349.06
2023-01-25T20:23:44.095Z,101330.97
2023-01-25T20:26:14.747Z,101342.84
2023-01-25T20:28:44.134Z,101332.66
2023-01-25T20:31:21.093Z,101325.72
2023-01-25T20:33:49.574Z,101323.38
2023-01-25T20:36:18.980Z,101327.66
2023-01-25T20:38:52.843Z,101324.31
2023-01-25T20:41:20.630Z,101317.00
2023-01-25T20:43:49.254Z,101296.47
2023-01-25T20:46:17.948Z,101317.56
2023-01-25T20:48:45.922Z,101322.78
2023-01-25T20:51:16.947Z,101328.78
2023-01-25T20:53:47.614Z,101321.22
2023-01-25T20:56:15.673Z,101327.25
2023-01-25T20:58:45.934Z,101324.50
2023-01-25T21:01:15.304Z,101323.94
2023-01-25T21:03:43.400Z,101332.50
2023-01-25T21:06:24.210Z,101325.59
2023-01-25T21:08:53.698Z,101311.16
2023-01-25T21:11:23.128Z,101319.63
2023-01-25T21:13:51.099Z,101310.28
2023-01-25T21:16:22.043Z,101321.31
2023-01-25T21:18:51.419Z,101287.38
2023-01-25T21:21:21.525Z,101313.59
2023-01-25T21:23:50.826Z,101317.81
2023-01-25T21:26:21.426Z,101320.56
2023-01-25T21:28:49.755Z,101315.31
2023-01-25T21:31:19.314Z,101300.06
2023-01-25T21:33:47.974Z,101302.59
2023-01-25T21:36:17.581Z,101318.03
2023-01-25T21:38:47.294Z,101327.38
2023-01-25T21:41:19.884Z,101324.78
2023-01-25T21:44:07.064Z,101329.97
2023-01-25T21:46:35.327Z,101334.25
2023-01-25T21:49:23.234Z,101336.72
2023-01-25T21:51:52.713Z,101337.59
2023-01-25T21:54:22.478Z,101329.25
2023-01-25T21:56:52.270Z,101325.78
2023-01-25T21:59:22.168Z,101318.22
2023-01-25T22:01:50.307Z,101326.94
2023-01-25T22:04:19.781Z,101343.72
2023-01-25T22:06:48.899Z,101310.56
2023-01-25T22:09:17.273Z,101318.22
2023-01-25T22:11:46.835Z,101347.84
2023-01-25T22:14:15.209Z,101342.91
2023-01-25T22:16:44.354Z,101327.66
2023-01-25T22:19:12.553Z,101331.72
2023-01-25T22:21:40.300Z,101351.53
2023-01-25T22:24:09.133Z,101345.41
2023-01-25T22:26:47.284Z,101347.94
2023-01-25T22:29:16.087Z,101348.94
2023-01-25T22:31:45.626Z,101337.72
2023-01-25T22:34:13.534Z,101339.56
2023-01-25T22:36:41.278Z,101313.94
2023-01-25T22:39:09.128Z,101327.75
2023-01-25T22:41:38.514Z,101320.06
2023-01-25T22:44:06.672Z,101328.56
2023-01-25T22:46:35.172Z,101318.38
2023-01-25T22:49:04.874Z,101328.41
2023-01-25T22:51:33.753Z,101324.94
2023-01-25T22:54:01.726Z,101319.78
2023-01-25T22:56:31.949Z,101291.81
2023-01-25T22:59:01.079Z,101316.44
2023-01-25T23:01:31.379Z,101335.22
2023-01-25T23:04:00.148Z,101323.31
2023-01-25T23:06:31.807Z,101320.78
2023-01-25T23:09:01.258Z,101321.53
2023-01-25T23:11:32.307Z,101322.50
2023-01-25T23:14:18.328Z,101326.81
2023-01-25T23:16:46.655Z,101331.09
2023-01-25T23:19:14.551Z,101335.31
2023-01-25T23:21:43.930Z,101317.44
2023-01-25T23:24:12.075Z,101343.84
2023-01-25T23:26:46.345Z,101321.75
2023-01-25T23:29:14.855Z,101344.56
2023-01-25T23:31:42.692Z,101341.31
2023-01-25T23:34:12.687Z,101336.91
2023-01-25T23:36:42.351Z,101331.03
2023-01-25T23:39:14.366Z,101344.72
2023-01-25T23:41:42.099Z,101333.75
2023-01-25T23:44:10.213Z,101334.59
2023-01-25T23:46:38.184Z,101314.19
2023-01-25T23:49:05.961Z,101316.84
2023-01-25T23:51:33.694Z,101332.91
2023-01-25T23:54:01.668Z,101338.88
2023-01-25T23:56:30.817Z,101340.66
2023-01-25T23:58:58.615Z,101337.28
